createdAt,value
2018-08-22T00:00:59.564Z,7.20
2018-08-22T00:01:59.558Z,9.30
2018-08-22T00:02:59.560Z,9.60
2018-08-22T00:03:59.561Z,9.40
2018-08-22T00:04:59.558Z,11.40
2018-08-22T00:05:59.562Z,9.50
2018-08-22T00:06:59.557Z,7.90
2018-08-22T00:07:59.560Z,7.50
2018-08-22T00:08:59.616Z,8.60
2018-08-22T00:09:59.598Z,10.20
2018-08-22T00:10:59.550Z,8.10
2018-08-22T00:11:59.565Z,7.70
2018-08-22T00:12:59.547Z,9.90
2018-08-22T00:13:59.546Z,9.80
2018-08-22T00:14:59.590Z,8.90
2018-08-22T00:15:59.550Z,7.80
2018-08-22T00:16:59.539Z,7.90
2018-08-22T00:17:59.553Z,7.00
2018-08-22T00:18:59.544Z,8.00
2018-08-22T00:19:59.597Z,8.60
2018-08-22T00:20:59.533Z,7.90
2018-08-22T00:21:59.537Z,7.50
2018-08-22T00:22:59.580Z,8.00
2018-08-22T00:23:59.537Z,8.00
2018-08-22T00:24:59.529Z,7.50
2018-08-22T00:25:59.531Z,10.60
2018-08-22T00:26:59.533Z,7.80
2018-08-22T00:27:59.532Z,9.30
2018-08-22T00:28:59.532Z,7.60
2018-08-22T00:29:59.523Z,9.60
2018-08-22T00:30:59.553Z,9.20
2018-08-22T00:31:59.526Z,7.10
2018-08-22T00:32:59.529Z,8.50
2018-08-22T00:33:59.516Z,9.30
2018-08-22T00:34:59.522Z,9.20
2018-08-22T00:35:59.515Z,6.70
2018-08-22T00:36:59.517Z,8.50
2018-08-22T00:37:59.510Z,9.00
2018-08-22T00:38:59.510Z,10.20
2018-08-22T00:39:59.536Z,8.20
2018-08-22T00:40:59.512Z,7.40
2018-08-22T00:41:59.513Z,7.80
2018-08-22T00:42:59.503Z,9.60
2018-08-22T00:43:59.507Z,9.70
2018-08-22T00:44:59.501Z,9.30
2018-08-22T00:45:59.514Z,7.90
2018-08-22T00:46:59.503Z,8.10
2018-08-22T00:47:59.498Z,7.50
2018-08-22T00:48:59.496Z,14.00
2018-08-22T00:49:59.495Z,8.50
2018-08-22T00:50:59.498Z,8.70
2018-08-22T00:51:59.491Z,8.20
2018-08-22T00:52:59.488Z,9.60
2018-08-22T00:53:59.487Z,9.80
2018-08-22T00:54:59.491Z,8.10
2018-08-22T00:55:59.486Z,9.10
2018-08-22T00:56:59.483Z,9.40
2018-08-22T00:57:59.484Z,10.00
2018-08-22T00:58:59.547Z,9.10
2018-08-22T00:59:59.482Z,8.00
2018-08-22T01:00:59.476Z,10.20
2018-08-22T01:01:59.477Z,6.70
2018-08-22T01:02:59.476Z,8.30
2018-08-22T01:03:59.479Z,6.70
2018-08-22T01:04:59.471Z,7.90
2018-08-22T01:05:59.469Z,6.90
2018-08-22T01:06:59.466Z,8.10
2018-08-22T01:07:59.472Z,8.00
2018-08-22T01:08:59.466Z,7.70
2018-08-22T01:09:59.464Z,7.70
2018-08-22T01:10:59.463Z,10.60
2018-08-22T01:11:59.467Z,9.00
2018-08-22T01:12:59.462Z,7.00
2018-08-22T01:13:59.461Z,7.00
2018-08-22T01:14:59.464Z,7.70
2018-08-22T01:15:59.457Z,9.10
2018-08-22T01:16:59.455Z,7.60
2018-08-22T01:17:59.458Z,8.80
2018-08-22T01:18:59.447Z,6.80
2018-08-22T01:19:59.451Z,8.70
2018-08-22T01:20:59.451Z,7.40
2018-08-22T01:21:59.453Z,8.20
2018-08-22T01:22:59.445Z,9.40
2018-08-22T01:23:59.442Z,7.00
2018-08-22T01:24:59.437Z,6.80
2018-08-22T01:25:59.439Z,11.90
2018-08-22T01:26:59.438Z,9.00
2018-08-22T01:27:59.436Z,10.70
2018-08-22T01:28:59.437Z,7.80
2018-08-22T01:29:59.428Z,8.50
2018-08-22T01:30:59.432Z,7.40
2018-08-22T01:31:59.441Z,8.40
2018-08-22T01:32:59.424Z,7.70
2018-08-22T01:33:59.421Z,7.30
2018-08-22T01:34:59.437Z,9.30
2018-08-22T01:35:59.424Z,7.30
2018-08-22T01:36:59.419Z,9.60
2018-08-22T01:37:59.417Z,8.10
2018-08-22T01:38:59.414Z,9.00
2018-08-22T01:39:59.412Z,9.30
2018-08-22T01:40:59.414Z,10.20
2018-08-22T01:41:59.414Z,7.50
2018-08-22T01:42:59.429Z,9.80
2018-08-22T01:43:59.409Z,7.40
2018-08-22T01:44:59.447Z,7.50
2018-08-22T01:45:59.402Z,9.30
2018-08-22T01:46:59.397Z,7.20
2018-08-22T01:47:59.444Z,8.70
2018-08-22T01:48:59.401Z,9.40
2018-08-22T01:49:59.388Z,8.40
2018-08-22T01:50:59.396Z,9.80
2018-08-22T01:51:59.392Z,8.20
2018-08-22T01:52:59.387Z,12.70
2018-08-22T01:53:59.386Z,12.60
2018-08-22T01:54:59.425Z,10.20
2018-08-22T01:55:59.379Z,8.10
2018-08-22T01:56:59.377Z,9.00
2018-08-22T01:57:59.375Z,8.40
2018-08-22T01:58:59.376Z,10.10
2018-08-22T01:59:59.377Z,8.20
2018-08-22T02:00:59.369Z,9.50
2018-08-22T02:01:59.371Z,9.10
2018-08-22T02:02:59.370Z,8.80
2018-08-22T02:03:59.363Z,8.40
2018-08-22T02:04:59.360Z,7.80
2018-08-22T02:05:59.363Z,8.20
2018-08-22T02:06:59.360Z,7.80
2018-08-22T02:07:59.356Z,8.30
2018-08-22T02:08:59.355Z,7.40
2018-08-22T02:09:59.350Z,9.30
2018-08-22T02:10:59.350Z,7.20
2018-08-22T02:11:59.345Z,7.50
2018-08-22T02:12:59.346Z,7.50
2018-08-22T02:13:59.347Z,8.70
2018-08-22T02:14:59.339Z,7.60
2018-08-22T02:15:59.338Z,8.40
2018-08-22T02:16:59.343Z,7.10
2018-08-22T02:17:59.389Z,10.20
2018-08-22T02:18:59.382Z,8.00
2018-08-22T02:19:59.331Z,7.40
2018-08-22T02:20:59.327Z,9.40
2018-08-22T02:21:59.338Z,7.60
2018-08-22T02:22:59.323Z,10.80
2018-08-22T02:23:59.321Z,7.60
2018-08-22T02:24:59.320Z,8.30
2018-08-22T02:25:59.318Z,10.90
2018-08-22T02:26:59.324Z,8.20
2018-08-22T02:27:59.360Z,8.10
2018-08-22T02:28:59.329Z,7.40
2018-08-22T02:29:59.308Z,9.20
2018-08-22T02:30:59.310Z,7.70
2018-08-22T02:31:59.309Z,7.60
2018-08-22T02:32:59.301Z,7.60
2018-08-22T02:33:59.300Z,7.70
2018-08-22T02:34:59.305Z,9.90
2018-08-22T02:35:59.295Z,8.70
2018-08-22T02:36:59.292Z,10.90
2018-08-22T02:37:59.291Z,7.20
2018-08-22T02:38:59.291Z,9.10
2018-08-22T02:39:59.293Z,8.10
2018-08-22T02:40:59.336Z,8.20
2018-08-22T02:41:59.289Z,7.40
2018-08-22T02:42:59.286Z,9.00
2018-08-22T02:43:59.284Z,8.50
2018-08-22T02:44:59.294Z,7.80
2018-08-22T02:45:59.280Z,8.20
2018-08-22T02:46:59.273Z,9.00
2018-08-22T02:47:59.273Z,8.80
2018-08-22T02:48:59.274Z,10.40
2018-08-22T02:49:59.268Z,7.30
2018-08-22T02:50:59.314Z,7.60
2018-08-22T02:51:59.260Z,9.00
2018-08-22T02:52:59.263Z,7.40
2018-08-22T02:53:59.263Z,10.80
2018-08-22T02:54:59.270Z,9.60
2018-08-22T02:55:59.254Z,8.80
2018-08-22T02:56:59.255Z,7.70
2018-08-22T02:57:59.245Z,7.90
2018-08-22T02:58:59.251Z,9.10
2018-08-22T02:59:59.243Z,9.60
2018-08-22T03:00:59.284Z,7.30
2018-08-22T03:01:59.238Z,7.60
2018-08-22T03:02:59.233Z,10.00
2018-08-22T03:03:59.239Z,7.70
2018-08-22T03:04:59.228Z,7.60
2018-08-22T03:05:59.230Z,7.40
2018-08-22T03:06:59.227Z,8.80
2018-08-22T03:07:59.253Z,11.50
2018-08-22T03:08:59.227Z,7.80
2018-08-22T03:09:59.218Z,7.10
2018-08-22T03:10:59.218Z,9.80
2018-08-22T03:11:59.216Z,9.70
2018-08-22T03:12:59.211Z,6.80
2018-08-22T03:13:59.210Z,8.50
2018-08-22T03:14:59.208Z,10.40
2018-08-22T03:15:59.205Z,6.60
2018-08-22T03:16:59.202Z,7.90
2018-08-22T03:17:59.199Z,8.50
2018-08-22T03:18:59.195Z,8.00
2018-08-22T03:19:59.192Z,7.60
2018-08-22T03:20:59.191Z,9.70
2018-08-22T03:21:59.185Z,8.50
2018-08-22T03:22:59.189Z,8.00
2018-08-22T03:23:59.180Z,7.90
2018-08-22T03:24:59.185Z,9.10
2018-08-22T03:25:59.190Z,8.40
2018-08-22T03:26:59.180Z,10.30
2018-08-22T03:27:59.176Z,9.10
2018-08-22T03:28:59.169Z,7.60
2018-08-22T03:29:59.168Z,9.30
2018-08-22T03:30:59.165Z,9.10
2018-08-22T03:31:59.168Z,9.40
2018-08-22T03:32:59.159Z,8.20
2018-08-22T03:33:59.154Z,8.20
2018-08-22T03:34:59.159Z,8.10
2018-08-22T03:35:59.153Z,8.60
2018-08-22T03:36:59.146Z,7.60
2018-08-22T03:37:59.145Z,7.60
2018-08-22T03:38:59.151Z,7.70
2018-08-22T03:39:59.139Z,7.30
2018-08-22T03:40:59.142Z,9.30
2018-08-22T03:41:59.135Z,9.20
2018-08-22T03:42:59.133Z,9.00
2018-08-22T03:43:59.178Z,13.40
2018-08-22T03:44:59.127Z,8.50
2018-08-22T03:45:59.132Z,8.40
2018-08-22T03:46:59.129Z,8.10
2018-08-22T03:47:59.124Z,8.20
2018-08-22T03:48:59.118Z,7.80
2018-08-22T03:49:59.113Z,7.70
2018-08-22T03:50:59.114Z,9.00
2018-08-22T03:51:59.109Z,7.20
2018-08-22T03:52:59.111Z,7.10
2018-08-22T03:53:59.150Z,9.30
2018-08-22T03:54:59.102Z,7.70
2018-08-22T03:55:59.105Z,9.40
2018-08-22T03:56:59.099Z,9.70
2018-08-22T03:57:59.101Z,7.50
2018-08-22T03:58:59.096Z,8.90
2018-08-22T03:59:59.091Z,8.50
2018-08-22T04:00:59.118Z,10.60
2018-08-22T04:01:59.089Z,8.80
2018-08-22T04:02:59.079Z,7.50
2018-08-22T04:03:59.118Z,7.70
2018-08-22T04:04:59.075Z,7.10
2018-08-22T04:05:59.073Z,8.30
2018-08-22T04:06:59.069Z,7.90
2018-08-22T04:07:59.070Z,8.80
2018-08-22T04:08:59.069Z,8.20
2018-08-22T04:09:59.062Z,8.70
2018-08-22T04:10:59.063Z,9.60
2018-08-22T04:11:59.057Z,8.10
2018-08-22T04:12:59.055Z,8.50
2018-08-22T04:13:59.056Z,8.10
2018-08-22T04:14:59.053Z,10.10
2018-08-22T04:15:59.047Z,7.50
2018-08-22T04:16:59.046Z,9.50
2018-08-22T04:17:59.043Z,9.00
2018-08-22T04:18:59.037Z,9.10
2018-08-22T04:19:59.042Z,8.00
2018-08-22T04:20:59.035Z,8.20
2018-08-22T04:21:59.037Z,7.90
2018-08-22T04:22:59.030Z,8.40
2018-08-22T04:23:59.029Z,8.40
2018-08-22T04:24:59.027Z,8.20
2018-08-22T04:25:59.070Z,10.50
2018-08-22T04:26:59.021Z,9.20
2018-08-22T04:27:59.015Z,7.60
2018-08-22T04:28:59.014Z,9.20
2018-08-22T04:29:59.014Z,8.60
2018-08-22T04:30:59.052Z,8.20
2018-08-22T04:31:59.004Z,10.60
2018-08-22T04:32:59.001Z,8.10
2018-08-22T04:33:59.000Z,8.60
2018-08-22T04:34:58.994Z,11.70
2018-08-22T04:35:59.039Z,7.70
2018-08-22T04:36:58.990Z,9.00
2018-08-22T04:37:58.991Z,10.60
2018-08-22T04:38:58.985Z,8.60
2018-08-22T04:39:58.985Z,9.80
2018-08-22T04:40:58.978Z,8.40
2018-08-22T04:41:58.980Z,9.00
2018-08-22T04:42:58.976Z,12.80
2018-08-22T04:43:58.978Z,8.60
2018-08-22T04:44:58.972Z,8.40
2018-08-22T04:45:59.003Z,8.20
2018-08-22T04:46:58.966Z,9.10
2018-08-22T04:47:58.968Z,10.40
2018-08-22T04:48:58.956Z,9.90
2018-08-22T04:49:58.957Z,9.30
2018-08-22T04:50:58.955Z,10.30
2018-08-22T04:51:58.949Z,10.50
2018-08-22T04:52:58.944Z,9.30
2018-08-22T04:53:58.942Z,8.90
2018-08-22T04:54:58.945Z,9.50
2018-08-22T04:55:58.975Z,9.90
2018-08-22T04:56:58.936Z,8.40
2018-08-22T04:57:58.934Z,8.80
2018-08-22T04:58:58.946Z,10.70
2018-08-22T04:59:58.928Z,11.80
2018-08-22T05:00:58.932Z,8.40
2018-08-22T05:01:58.920Z,8.50
2018-08-22T05:02:58.929Z,8.60
2018-08-22T05:03:58.923Z,9.40
2018-08-22T05:04:58.919Z,8.90
2018-08-22T05:05:58.968Z,9.40
2018-08-22T05:06:58.909Z,9.10
2018-08-22T05:07:58.906Z,7.80
2018-08-22T05:08:58.911Z,9.60
2018-08-22T05:09:58.900Z,9.60
2018-08-22T05:10:58.901Z,9.70
2018-08-22T05:11:58.899Z,8.70
2018-08-22T05:12:58.898Z,8.60
2018-08-22T05:13:58.894Z,7.90
2018-08-22T05:14:58.887Z,8.10
2018-08-22T05:15:58.884Z,9.10
2018-08-22T05:16:58.888Z,8.50
2018-08-22T05:17:58.883Z,9.00
2018-08-22T05:18:58.878Z,7.80
2018-08-22T05:19:58.874Z,9.40
2018-08-22T05:20:58.872Z,8.90
2018-08-22T05:21:58.869Z,8.80
2018-08-22T05:22:58.870Z,7.80
2018-08-22T05:23:58.871Z,8.60
2018-08-22T05:24:58.862Z,8.80
2018-08-22T05:25:58.866Z,7.50
2018-08-22T05:26:58.859Z,7.80
2018-08-22T05:27:58.858Z,10.10
2018-08-22T05:28:58.853Z,14.10
2018-08-22T05:29:58.855Z,9.10
2018-08-22T05:30:58.851Z,10.90
2018-08-22T05:31:58.859Z,9.70
2018-08-22T05:32:58.854Z,10.20
2018-08-22T05:33:58.844Z,9.40
2018-08-22T05:34:58.853Z,9.80
2018-08-22T05:35:58.847Z,9.80
2018-08-22T05:36:58.840Z,8.90
2018-08-22T05:37:58.839Z,7.90
2018-08-22T05:38:58.838Z,12.70
2018-08-22T05:39:58.842Z,8.60
2018-08-22T05:40:58.835Z,9.40
2018-08-22T05:41:58.832Z,8.90
2018-08-22T05:42:58.834Z,14.00
2018-08-22T05:43:58.831Z,10.30
2018-08-22T05:44:58.824Z,11.60
2018-08-22T05:45:58.823Z,12.30
2018-08-22T05:46:58.825Z,10.80
2018-08-22T05:47:58.824Z,14.90
2018-08-22T05:48:58.817Z,9.10
2018-08-22T05:49:58.823Z,16.50
2018-08-22T05:50:58.818Z,12.00
2018-08-22T05:51:58.817Z,11.10
2018-08-22T05:52:58.812Z,12.10
2018-08-22T05:53:58.813Z,10.80
2018-08-22T05:54:58.813Z,9.70
2018-08-22T05:55:58.812Z,9.60
2018-08-22T05:56:58.806Z,9.90
2018-08-22T05:57:58.806Z,11.70
2018-08-22T05:58:58.804Z,9.90
2018-08-22T05:59:58.808Z,10.30
2018-08-22T06:00:58.800Z,9.50
2018-08-22T06:01:58.813Z,10.40
2018-08-22T06:02:58.800Z,12.50
2018-08-22T06:03:58.796Z,14.00
2018-08-22T06:04:58.795Z,12.70
2018-08-22T06:05:58.798Z,16.70
2018-08-22T06:06:58.796Z,21.70
2018-08-22T06:07:58.794Z,11.60
2018-08-22T06:08:58.790Z,14.80
2018-08-22T06:09:58.789Z,14.00
2018-08-22T06:10:58.796Z,10.30
2018-08-22T06:11:58.788Z,10.40
2018-08-22T06:12:58.788Z,8.60
2018-08-22T06:13:58.789Z,12.10
2018-08-22T06:14:58.792Z,11.90
2018-08-22T06:15:58.785Z,10.60
2018-08-22T06:16:58.785Z,12.70
2018-08-22T06:17:58.786Z,11.20
2018-08-22T06:18:58.789Z,12.90
2018-08-22T06:19:58.883Z,13.30
2018-08-22T06:20:58.783Z,16.40
2018-08-22T06:21:58.784Z,16.30
2018-08-22T06:22:58.788Z,17.20
2018-08-22T06:23:58.786Z,14.00
2018-08-22T06:24:58.780Z,21.40
2018-08-22T06:25:58.777Z,11.80
2018-08-22T06:26:58.776Z,12.10
2018-08-22T06:27:58.776Z,11.40
2018-08-22T06:28:58.779Z,13.60
2018-08-22T06:29:58.781Z,13.50
2018-08-22T06:30:58.778Z,15.80
2018-08-22T06:31:58.781Z,14.80
2018-08-22T06:32:58.784Z,15.70
2018-08-22T06:33:58.774Z,18.70
2018-08-22T06:34:58.771Z,19.70
2018-08-22T06:35:58.776Z,15.80
2018-08-22T06:36:58.774Z,24.60
2018-08-22T06:37:58.779Z,23.70
2018-08-22T06:38:58.767Z,18.60
2018-08-22T06:39:58.768Z,36.00
2018-08-22T06:40:58.768Z,16.40
2018-08-22T06:41:58.765Z,16.50
2018-08-22T06:42:58.772Z,13.60
2018-08-22T06:43:58.767Z,18.60
2018-08-22T06:44:58.765Z,17.20
2018-08-22T06:45:58.765Z,15.10
2018-08-22T06:46:58.768Z,15.60
2018-08-22T06:47:58.774Z,20.30
2018-08-22T06:48:58.764Z,17.40
2018-08-22T06:49:58.768Z,20.00
2018-08-22T06:50:58.767Z,18.90
2018-08-22T06:51:58.762Z,31.10
2018-08-22T06:52:58.768Z,36.20
2018-08-22T06:53:58.765Z,30.70
2018-08-22T06:54:58.767Z,22.50
2018-08-22T06:55:58.770Z,21.90
2018-08-22T06:56:58.801Z,24.20
2018-08-22T06:57:58.762Z,34.00
2018-08-22T06:58:58.762Z,21.90
2018-08-22T06:59:58.763Z,15.90
2018-08-22T07:00:58.765Z,14.80
2018-08-22T07:01:58.773Z,11.10
2018-08-22T07:02:58.762Z,17.00
2018-08-22T07:03:58.766Z,15.50
2018-08-22T07:04:58.761Z,15.70
2018-08-22T07:05:58.761Z,13.10
2018-08-22T07:06:58.764Z,12.30
2018-08-22T07:07:58.785Z,11.40
2018-08-22T07:08:58.764Z,14.90
2018-08-22T07:09:58.768Z,15.50
2018-08-22T07:10:58.771Z,16.00
2018-08-22T07:11:58.764Z,22.50
2018-08-22T07:12:58.765Z,19.80
2018-08-22T07:13:58.773Z,12.20
2018-08-22T07:14:58.765Z,12.60
2018-08-22T07:15:58.765Z,17.20
2018-08-22T07:16:58.766Z,16.70
2018-08-22T07:17:58.766Z,15.30
2018-08-22T07:18:58.771Z,12.60
2018-08-22T07:19:58.771Z,14.50
2018-08-22T07:20:58.835Z,14.40
2018-08-22T07:21:58.766Z,14.60
2018-08-22T07:22:58.768Z,15.70
2018-08-22T07:23:58.768Z,12.40
2018-08-22T07:24:58.771Z,14.90
2018-08-22T07:25:58.770Z,10.50
2018-08-22T07:26:58.770Z,16.70
2018-08-22T07:27:58.767Z,17.40
2018-08-22T07:28:58.769Z,14.60
2018-08-22T07:29:58.780Z,14.60
2018-08-22T07:30:58.769Z,12.00
2018-08-22T07:31:58.773Z,13.60
2018-08-22T07:32:58.772Z,14.80
2018-08-22T07:33:58.770Z,15.10
2018-08-22T07:34:58.776Z,11.80
2018-08-22T07:35:58.772Z,13.00
2018-08-22T07:36:58.777Z,10.50
2018-08-22T07:37:58.778Z,14.50
2018-08-22T07:38:58.775Z,13.30
2018-08-22T07:39:58.773Z,10.40
2018-08-22T07:40:58.782Z,9.40
2018-08-22T07:41:58.774Z,8.90
2018-08-22T07:42:58.776Z,11.50
2018-08-22T07:43:58.776Z,9.40
2018-08-22T07:44:58.784Z,13.30
2018-08-22T07:45:58.784Z,18.30
2018-08-22T07:46:58.802Z,10.50
2018-08-22T07:47:58.782Z,8.50
2018-08-22T07:48:58.781Z,9.30
2018-08-22T07:49:58.785Z,8.10
2018-08-22T07:50:58.791Z,7.60
2018-08-22T07:51:58.789Z,9.10
2018-08-22T07:52:58.790Z,8.60
2018-08-22T07:53:58.792Z,8.70
2018-08-22T07:54:58.790Z,7.90
2018-08-22T07:55:58.788Z,7.70
2018-08-22T07:56:58.794Z,8.30
2018-08-22T07:57:58.793Z,9.70
2018-08-22T07:58:58.790Z,10.00
2018-08-22T07:59:58.799Z,9.80
2018-08-22T08:00:58.797Z,10.20
2018-08-22T08:01:58.910Z,7.80
2018-08-22T08:02:58.796Z,9.10
2018-08-22T08:03:58.798Z,8.20
2018-08-22T08:04:58.805Z,8.80
2018-08-22T08:05:58.806Z,9.20
2018-08-22T08:06:58.842Z,9.10
2018-08-22T08:07:58.803Z,8.20
2018-08-22T08:08:58.804Z,7.80
2018-08-22T08:09:58.809Z,7.70
2018-08-22T08:10:58.867Z,8.90
2018-08-22T08:11:58.809Z,8.80
2018-08-22T08:12:58.811Z,8.40
2018-08-22T08:13:58.818Z,9.10
2018-08-22T08:14:58.814Z,10.00
2018-08-22T08:15:58.819Z,9.30
2018-08-22T08:16:58.834Z,10.20
2018-08-22T08:17:58.820Z,12.30
2018-08-22T08:18:58.821Z,9.50
2018-08-22T08:19:58.822Z,9.40
2018-08-22T08:20:58.823Z,9.60
2018-08-22T08:21:58.833Z,6.80
2018-08-22T08:22:58.834Z,6.60
2018-08-22T08:23:58.840Z,10.70
2018-08-22T08:24:58.830Z,9.90
2018-08-22T08:25:58.886Z,9.80
2018-08-22T08:26:58.841Z,7.00
2018-08-22T08:27:58.842Z,10.70
2018-08-22T08:28:58.845Z,8.30
2018-08-22T08:29:58.848Z,7.10
2018-08-22T08:30:58.848Z,8.90
2018-08-22T08:31:58.846Z,11.30
2018-08-22T08:32:58.850Z,9.30
2018-08-22T08:33:58.851Z,8.80
2018-08-22T08:34:58.858Z,8.80
2018-08-22T08:35:58.912Z,9.20
2018-08-22T08:36:58.856Z,10.10
2018-08-22T08:37:58.859Z,8.00
2018-08-22T08:38:58.873Z,8.10
2018-08-22T08:39:58.868Z,6.60
2018-08-22T08:40:58.864Z,8.00
2018-08-22T08:41:58.874Z,10.30
2018-08-22T08:42:58.874Z,8.60
2018-08-22T08:43:58.877Z,8.20
2018-08-22T08:44:58.873Z,12.10
2018-08-22T08:45:58.879Z,8.50
2018-08-22T08:46:58.878Z,9.10
2018-08-22T08:47:58.883Z,8.70
2018-08-22T08:48:58.881Z,7.60
2018-08-22T08:49:58.885Z,9.10
2018-08-22T08:50:58.888Z,9.40
2018-08-22T08:51:58.889Z,8.20
2018-08-22T08:52:58.896Z,13.20
2018-08-22T08:53:58.899Z,7.30
2018-08-22T08:54:58.919Z,7.70
2018-08-22T08:55:58.901Z,7.90
2018-08-22T08:56:58.900Z,7.30
2018-08-22T08:57:58.914Z,6.70
2018-08-22T08:58:58.911Z,6.10
2018-08-22T08:59:58.925Z,8.80
2018-08-22T09:00:58.914Z,9.30
2018-08-22T09:01:58.919Z,8.90
2018-08-22T09:02:58.918Z,11.40
2018-08-22T09:03:58.967Z,7.60
2018-08-22T09:04:58.927Z,7.60
2018-08-22T09:05:58.924Z,6.90
2018-08-22T09:06:58.937Z,7.60
2018-08-22T09:07:58.936Z,7.40
2018-08-22T09:08:58.934Z,6.60
2018-08-22T09:09:58.937Z,7.30
2018-08-22T09:10:58.937Z,8.80
2018-08-22T09:11:58.944Z,7.20
2018-08-22T09:12:58.946Z,7.80
2018-08-22T09:13:58.944Z,8.10
2018-08-22T09:14:58.947Z,9.40
2018-08-22T09:15:58.957Z,6.40
2018-08-22T09:16:58.956Z,6.30
2018-08-22T09:17:58.957Z,7.50
2018-08-22T09:18:58.962Z,9.60
2018-08-22T09:19:58.961Z,5.90
2018-08-22T09:20:58.992Z,6.10
2018-08-22T09:21:58.968Z,8.00
2018-08-22T09:22:58.976Z,7.70
2018-08-22T09:23:58.978Z,8.10
2018-08-22T09:24:58.981Z,5.90
2018-08-22T09:25:58.985Z,7.10
2018-08-22T09:26:58.982Z,7.70
2018-08-22T09:27:59.020Z,8.50
2018-08-22T09:28:58.994Z,6.00
2018-08-22T09:29:59.001Z,11.80
2018-08-22T09:30:58.995Z,9.20
2018-08-22T09:31:59.002Z,9.50
2018-08-22T09:32:59.006Z,7.50
2018-08-22T09:33:59.002Z,6.00
2018-08-22T09:34:59.005Z,9.80
2018-08-22T09:35:59.010Z,7.70
2018-08-22T09:36:59.040Z,8.80
2018-08-22T09:37:59.016Z,7.20
2018-08-22T09:38:59.020Z,6.30
2018-08-22T09:39:59.071Z,7.50
2018-08-22T09:40:59.024Z,6.50
2018-08-22T09:41:59.033Z,7.80
2018-08-22T09:42:59.030Z,9.70
2018-08-22T09:43:59.035Z,8.60
2018-08-22T09:44:59.038Z,7.90
2018-08-22T09:45:59.043Z,11.50
2018-08-22T09:46:59.049Z,7.10
2018-08-22T09:47:59.053Z,10.50
2018-08-22T09:48:59.053Z,7.40
2018-08-22T09:49:59.053Z,7.40
2018-08-22T09:50:59.188Z,9.70
2018-08-22T09:51:59.059Z,8.70
2018-08-22T09:52:59.063Z,6.50
2018-08-22T09:53:59.065Z,8.60
2018-08-22T09:54:59.069Z,9.00
2018-08-22T09:55:59.084Z,6.50
2018-08-22T09:56:59.077Z,8.50
2018-08-22T09:57:59.086Z,8.00
2018-08-22T09:58:59.083Z,8.10
2018-08-22T09:59:59.120Z,7.70
2018-08-22T10:00:59.090Z,8.00
2018-08-22T10:01:59.096Z,7.40
2018-08-22T10:02:59.098Z,6.50
2018-08-22T10:03:59.100Z,7.30
2018-08-22T10:04:59.102Z,7.50
2018-08-22T10:05:59.107Z,10.20
2018-08-22T10:06:59.130Z,7.30
2018-08-22T10:07:59.117Z,9.00
2018-08-22T10:08:59.115Z,7.90
2018-08-22T10:09:59.282Z,7.70
2018-08-22T10:10:59.130Z,6.70
2018-08-22T10:11:59.160Z,6.70
2018-08-22T10:12:59.130Z,6.80
2018-08-22T10:13:59.142Z,8.20
2018-08-22T10:14:59.137Z,9.00
2018-08-22T10:15:59.147Z,6.90
2018-08-22T10:16:59.147Z,12.30
2018-08-22T10:17:59.147Z,7.00
2018-08-22T10:18:59.216Z,10.40
2018-08-22T10:19:59.158Z,8.20
2018-08-22T10:20:59.158Z,7.50
2018-08-22T10:21:59.162Z,8.20
2018-08-22T10:22:59.171Z,8.60
2018-08-22T10:23:59.171Z,9.20
2018-08-22T10:24:59.179Z,6.50
2018-08-22T10:25:59.182Z,7.70
2018-08-22T10:26:59.198Z,6.40
2018-08-22T10:27:59.191Z,6.90
2018-08-22T10:28:59.187Z,8.30
2018-08-22T10:29:59.193Z,6.30
2018-08-22T10:30:59.195Z,7.50
2018-08-22T10:31:59.200Z,9.30
2018-08-22T10:32:59.259Z,7.70
2018-08-22T10:33:59.212Z,9.30
2018-08-22T10:34:59.211Z,6.80
2018-08-22T10:35:59.222Z,7.20
2018-08-22T10:36:59.224Z,7.00
2018-08-22T10:37:59.227Z,6.70
2018-08-22T10:38:59.228Z,9.20
2018-08-22T10:39:59.240Z,6.80
2018-08-22T10:40:59.236Z,7.00
2018-08-22T10:41:59.243Z,8.50
2018-08-22T10:42:59.242Z,6.20
2018-08-22T10:43:59.252Z,8.00
2018-08-22T10:44:59.251Z,8.00
2018-08-22T10:45:59.256Z,9.10
2018-08-22T10:46:59.257Z,8.90
2018-08-22T10:47:59.270Z,6.90
2018-08-22T10:48:59.270Z,6.20
2018-08-22T10:49:59.274Z,5.70
2018-08-22T10:50:59.272Z,6.20
2018-08-22T10:51:59.282Z,9.20
2018-08-22T10:52:59.280Z,8.50
2018-08-22T10:53:59.334Z,6.50
2018-08-22T10:54:59.289Z,7.90
2018-08-22T10:55:59.299Z,7.40
2018-08-22T10:56:59.298Z,6.50
2018-08-22T10:57:59.300Z,6.30
2018-08-22T10:58:59.305Z,7.20
2018-08-22T10:59:59.309Z,10.70
2018-08-22T11:00:59.317Z,6.10
2018-08-22T11:01:59.324Z,6.10
2018-08-22T11:02:59.329Z,6.50
2018-08-22T11:03:59.331Z,7.40
2018-08-22T11:04:59.335Z,7.00
2018-08-22T11:05:59.341Z,9.90
2018-08-22T11:06:59.338Z,6.30
2018-08-22T11:07:59.353Z,6.60
2018-08-22T11:08:59.353Z,7.30
2018-08-22T11:09:59.471Z,11.00
2018-08-22T11:10:59.357Z,8.00
2018-08-22T11:11:59.364Z,6.90
2018-08-22T11:12:59.368Z,9.00
2018-08-22T11:13:59.376Z,7.60
2018-08-22T11:14:59.374Z,6.20
2018-08-22T11:15:59.421Z,7.70
2018-08-22T11:16:59.391Z,9.10
2018-08-22T11:17:59.388Z,7.70
2018-08-22T11:18:59.393Z,9.90
2018-08-22T11:19:59.402Z,7.80
2018-08-22T11:20:59.401Z,9.20
2018-08-22T11:21:59.410Z,8.60
2018-08-22T11:22:59.411Z,6.60
2018-08-22T11:23:59.424Z,6.30
2018-08-22T11:24:59.426Z,7.10
2018-08-22T11:25:59.431Z,9.80
2018-08-22T11:26:59.433Z,7.90
2018-08-22T11:27:59.441Z,6.90
2018-08-22T11:28:59.441Z,6.20
2018-08-22T11:29:59.449Z,6.10
2018-08-22T11:30:59.457Z,8.60
2018-08-22T11:31:59.456Z,6.40
2018-08-22T11:32:59.457Z,8.50
2018-08-22T11:33:59.462Z,7.60
2018-08-22T11:34:59.469Z,5.90
2018-08-22T11:35:59.472Z,6.40
2018-08-22T11:36:59.480Z,5.90
2018-08-22T11:37:59.483Z,9.50
2018-08-22T11:38:59.489Z,6.10
2018-08-22T11:39:59.491Z,9.40
2018-08-22T11:40:59.502Z,8.70
2018-08-22T11:41:59.502Z,7.50
2018-08-22T11:42:59.505Z,6.00
2018-08-22T11:43:59.510Z,7.60
2018-08-22T11:44:59.517Z,6.30
2018-08-22T11:45:59.521Z,7.00
2018-08-22T11:46:59.525Z,8.40
2018-08-22T11:47:59.536Z,7.70
2018-08-22T11:48:59.535Z,6.60
2018-08-22T11:49:59.546Z,6.20
2018-08-22T11:50:59.545Z,6.10
2018-08-22T11:51:59.549Z,7.60
2018-08-22T11:52:59.561Z,6.70
2018-08-22T11:53:59.563Z,6.80
2018-08-22T11:54:59.569Z,7.10
2018-08-22T11:55:59.586Z,7.40
2018-08-22T11:56:59.573Z,7.50
2018-08-22T11:57:59.582Z,7.10
2018-08-22T11:58:59.583Z,7.80
2018-08-22T11:59:59.597Z,7.90
2018-08-22T12:00:59.594Z,7.40
2018-08-22T12:01:59.669Z,7.60
2018-08-22T12:02:59.613Z,7.20
2018-08-22T12:03:59.610Z,8.00
2018-08-22T12:04:59.619Z,7.10
2018-08-22T12:05:59.621Z,7.90
2018-08-22T12:06:59.628Z,6.50
2018-08-22T12:07:59.639Z,6.40
2018-08-22T12:08:59.641Z,6.60
2018-08-22T12:09:59.644Z,7.00
2018-08-22T12:10:59.651Z,7.10
2018-08-22T12:11:59.655Z,9.80
2018-08-22T12:12:59.659Z,9.80
2018-08-22T12:13:59.663Z,6.60
2018-08-22T12:14:59.668Z,6.70
2018-08-22T12:15:59.717Z,5.80
2018-08-22T12:16:59.683Z,8.90
2018-08-22T12:17:59.685Z,8.70
2018-08-22T12:18:59.698Z,11.00
2018-08-22T12:19:59.698Z,6.90
2018-08-22T12:20:59.701Z,8.20
2018-08-22T12:21:59.714Z,5.60
2018-08-22T12:22:59.832Z,8.00
2018-08-22T12:23:59.726Z,6.20
2018-08-22T12:24:59.725Z,6.20
2018-08-22T12:25:59.733Z,6.50
2018-08-22T12:26:59.740Z,7.00
2018-08-22T12:27:59.741Z,9.20
2018-08-22T12:28:59.747Z,6.30
2018-08-22T12:29:59.753Z,7.30
2018-08-22T12:30:59.811Z,6.30
2018-08-22T12:31:59.762Z,7.60
2018-08-22T12:32:59.774Z,7.90
2018-08-22T12:33:59.785Z,6.20
2018-08-22T12:34:59.785Z,8.50
2018-08-22T12:35:59.793Z,34.30
2018-08-22T12:36:59.791Z,27.60
2018-08-22T12:37:59.797Z,17.60
2018-08-22T12:38:59.805Z,6.70
2018-08-22T12:39:59.815Z,7.30
2018-08-22T12:40:59.821Z,6.30
2018-08-22T12:41:59.825Z,6.80
2018-08-22T12:42:59.825Z,6.20
2018-08-22T12:43:59.837Z,7.70
2018-08-22T12:44:59.843Z,6.00
2018-08-22T12:45:59.845Z,5.70
2018-08-22T12:46:59.855Z,5.80
2018-08-22T12:47:59.854Z,12.70
2018-08-22T12:48:59.864Z,10.20
2018-08-22T12:49:59.867Z,6.20
2018-08-22T12:50:59.873Z,6.10
2018-08-22T12:51:59.881Z,8.40
2018-08-22T12:52:59.883Z,5.70
2018-08-22T12:53:59.891Z,5.80
2018-08-22T12:54:59.894Z,6.80
2018-08-22T12:55:59.900Z,6.40
2018-08-22T12:56:59.906Z,8.00
2018-08-22T12:57:59.917Z,6.80
2018-08-22T12:58:59.917Z,7.10
2018-08-22T12:59:59.925Z,6.20
2018-08-22T13:00:59.974Z,6.20
2018-08-22T13:01:59.933Z,7.60
2018-08-22T13:02:59.938Z,8.10
2018-08-22T13:03:59.948Z,8.80
2018-08-22T13:04:59.953Z,9.80
2018-08-22T13:05:59.957Z,8.60
2018-08-22T13:06:59.961Z,10.60
2018-08-22T13:07:59.972Z,10.20
2018-08-22T13:08:59.975Z,8.10
2018-08-22T13:09:59.980Z,7.00
2018-08-22T13:11:00.008Z,6.10
2018-08-22T13:11:59.999Z,7.60
2018-08-22T13:13:00.000Z,16.10